createdAt,value
2018-05-15T00:02:01.395Z,90.70
2018-05-15T00:04:28.846Z,90.70
2018-05-15T00:06:56.313Z,91.00
2018-05-15T00:09:23.755Z,90.70
2018-05-15T00:11:51.206Z,90.80
2018-05-15T00:14:18.663Z,90.90
2018-05-15T00:16:46.115Z,90.90
2018-05-15T00:19:13.571Z,91.00
2018-05-15T00:21:41.036Z,91.00
2018-05-15T00:24:08.495Z,91.00
2018-05-15T00:26:35.955Z,91.10
2018-05-15T00:29:03.407Z,91.20
2018-05-15T00:31:30.868Z,91.20
2018-05-15T00:33:58.327Z,91.20
2018-05-15T00:36:25.789Z,91.30
2018-05-15T00:38:53.249Z,91.20
2018-05-15T00:41:20.703Z,91.20
2018-05-15T00:43:48.154Z,91.10
2018-05-15T00:46:15.615Z,91.10
2018-05-15T00:48:43.066Z,91.00
2018-05-15T00:51:10.527Z,90.90
2018-05-15T00:53:37.988Z,91.00
2018-05-15T00:56:05.447Z,91.10
2018-05-15T00:58:33.725Z,91.20
2018-05-15T01:01:01.180Z,91.10
2018-05-15T01:03:28.640Z,91.20
2018-05-15T01:05:56.104Z,91.10
2018-05-15T01:08:23.558Z,91.10
2018-05-15T01:10:51.019Z,91.50
2018-05-15T01:13:18.470Z,91.40
2018-05-15T01:15:45.923Z,91.30
2018-05-15T01:18:13.376Z,91.40
2018-05-15T01:20:40.832Z,91.40
2018-05-15T01:23:08.298Z,91.40
2018-05-15T01:25:35.752Z,91.20
2018-05-15T01:28:03.208Z,91.10
2018-05-15T01:30:30.660Z,91.10
2018-05-15T01:32:58.124Z,91.20
2018-05-15T01:35:25.582Z,91.20
2018-05-15T01:37:53.043Z,91.20
2018-05-15T01:40:20.516Z,91.20
2018-05-15T01:42:48.738Z,91.40
2018-05-15T01:45:16.193Z,91.40
2018-05-15T01:47:43.660Z,91.50
2018-05-15T01:50:11.098Z,91.50
2018-05-15T01:52:38.560Z,91.90
2018-05-15T01:55:06.012Z,92.00
2018-05-15T01:57:33.472Z,92.10
2018-05-15T02:00:00.914Z,92.20
2018-05-15T02:02:28.391Z,92.30
2018-05-15T02:04:55.836Z,92.30
2018-05-15T02:07:23.300Z,92.10
2018-05-15T02:09:50.751Z,92.10
2018-05-15T02:12:18.213Z,91.90
2018-05-15T02:14:45.668Z,91.90
2018-05-15T02:17:13.124Z,91.50
2018-05-15T02:19:40.579Z,91.40
2018-05-15T02:22:08.036Z,91.50
2018-05-15T02:24:35.495Z,91.60
2018-05-15T02:27:03.006Z,91.80
2018-05-15T02:29:30.407Z,91.80
2018-05-15T02:31:57.863Z,91.90
2018-05-15T02:34:25.322Z,91.90
2018-05-15T02:36:52.788Z,92.10
2018-05-15T02:39:20.244Z,92.10
2018-05-15T02:41:47.701Z,92.10
2018-05-15T02:44:15.152Z,92.20
2018-05-15T02:46:42.608Z,92.40
2018-05-15T02:49:10.046Z,92.40
2018-05-15T02:51:37.519Z,92.50
2018-05-15T02:54:04.968Z,92.20
2018-05-15T02:56:32.424Z,92.30
2018-05-15T02:58:59.895Z,92.30
2018-05-15T03:01:27.348Z,92.40
2018-05-15T03:03:54.795Z,92.50
2018-05-15T03:06:22.262Z,92.60
2018-05-15T03:08:49.737Z,92.60
2018-05-15T03:11:17.193Z,92.70
2018-05-15T03:13:44.652Z,92.70
2018-05-15T03:16:12.103Z,92.60
2018-05-15T03:18:39.564Z,92.60
2018-05-15T03:21:07.019Z,92.60
2018-05-15T03:23:34.472Z,92.50
2018-05-15T03:26:01.920Z,92.60
2018-05-15T03:28:29.375Z,92.40
2018-05-15T03:30:56.832Z,92.50
2018-05-15T03:33:24.288Z,92.70
2018-05-15T03:35:51.747Z,92.60
2018-05-15T03:38:19.207Z,92.90
2018-05-15T03:40:46.660Z,92.80
2018-05-15T03:43:14.116Z,92.90
2018-05-15T03:45:41.571Z,93.20
2018-05-15T03:48:09.052Z,93.20
2018-05-15T03:50:36.508Z,93.30
2018-05-15T03:53:03.968Z,93.30
2018-05-15T03:55:31.424Z,93.20
2018-05-15T03:57:58.879Z,93.20
2018-05-15T04:00:38.278Z,93.20
2018-05-15T04:03:18.446Z,93.30
2018-05-15T04:05:57.730Z,93.30
2018-05-15T04:08:25.182Z,93.30
2018-05-15T04:10:52.737Z,93.10
2018-05-15T04:13:20.095Z,93.00
2018-05-15T04:15:47.551Z,93.10
2018-05-15T04:18:15.009Z,92.80
2018-05-15T04:20:42.464Z,92.90
2018-05-15T04:23:09.924Z,92.70
2018-05-15T04:25:37.376Z,92.40
2018-05-15T04:28:04.884Z,92.50
2018-05-15T04:30:32.293Z,92.20
2018-05-15T04:32:59.747Z,92.10
2018-05-15T04:35:27.208Z,91.60
2018-05-15T04:37:54.662Z,91.40
2018-05-15T04:40:22.115Z,91.20
2018-05-15T04:42:49.573Z,91.20
2018-05-15T04:45:17.037Z,91.20
2018-05-15T04:47:44.493Z,91.40
2018-05-15T04:50:11.947Z,91.50
2018-05-15T04:52:39.408Z,91.50
2018-05-15T04:55:06.873Z,91.50
2018-05-15T04:57:34.323Z,91.60
2018-05-15T05:00:01.788Z,91.50
2018-05-15T05:02:29.247Z,91.60
2018-05-15T05:04:57.496Z,91.50
2018-05-15T05:07:24.958Z,91.00
2018-05-15T05:09:52.412Z,90.60
2018-05-15T05:12:19.864Z,90.20
2018-05-15T05:14:47.336Z,89.30
2018-05-15T05:17:14.784Z,87.70
2018-05-15T05:19:42.252Z,86.30
2018-05-15T05:22:09.699Z,85.60
2018-05-15T05:24:37.175Z,84.80
2018-05-15T05:27:04.707Z,83.00
2018-05-15T05:29:32.884Z,82.90
2018-05-15T05:32:00.355Z,82.80
2018-05-15T05:34:27.817Z,82.50
2018-05-15T05:36:55.272Z,80.90
2018-05-15T05:39:22.723Z,81.00
2018-05-15T05:41:50.179Z,81.80
2018-05-15T05:44:17.640Z,82.20
2018-05-15T05:46:45.079Z,78.70
2018-05-15T05:49:12.545Z,77.20
2018-05-15T05:51:39.996Z,75.50
2018-05-15T05:54:07.456Z,75.50
2018-05-15T05:56:34.908Z,74.70
2018-05-15T05:59:02.364Z,73.30
2018-05-15T06:01:29.811Z,71.80
2018-05-15T06:03:57.305Z,67.40
2018-05-15T06:06:24.728Z,66.90
2018-05-15T06:08:52.184Z,65.60
2018-05-15T06:11:19.650Z,63.70
2018-05-15T06:13:47.110Z,63.80
2018-05-15T06:16:14.581Z,62.20
2018-05-15T06:18:42.066Z,62.30
2018-05-15T06:21:10.288Z,63.20
2018-05-15T06:23:37.757Z,63.20
2018-05-15T06:26:05.203Z,61.70
2018-05-15T06:28:32.663Z,62.50
2018-05-15T06:31:00.104Z,62.00
2018-05-15T06:33:27.558Z,61.10
2018-05-15T06:35:54.998Z,60.60
2018-05-15T06:38:22.439Z,60.90
2018-05-15T06:40:50.662Z,60.20
2018-05-15T06:43:18.127Z,60.20
2018-05-15T06:45:45.585Z,61.10
2018-05-15T06:48:13.140Z,59.90
2018-05-15T06:50:40.644Z,60.50
2018-05-15T06:53:08.992Z,59.60
2018-05-15T06:55:36.460Z,59.60
2018-05-15T06:58:03.920Z,59.80
2018-05-15T07:00:31.416Z,59.80
2018-05-15T07:02:58.897Z,59.70
2018-05-15T07:05:26.347Z,59.20
2018-05-15T07:07:53.989Z,59.60
2018-05-15T07:10:22.839Z,59.40
2018-05-15T07:12:50.349Z,59.70
2018-05-15T07:15:17.816Z,60.00
2018-05-15T07:17:46.275Z,59.40
2018-05-15T07:20:13.734Z,59.40
2018-05-15T07:22:41.184Z,58.50
2018-05-15T07:25:08.992Z,59.30
2018-05-15T07:27:37.265Z,60.00
2018-05-15T07:30:04.733Z,59.90
2018-05-15T07:32:32.185Z,60.00
2018-05-15T07:35:00.442Z,58.90
2018-05-15T07:37:27.913Z,58.90
2018-05-15T07:39:55.448Z,58.80
2018-05-15T07:42:23.001Z,58.70
2018-05-15T07:44:50.490Z,58.80
2018-05-15T07:47:18.012Z,59.10
2018-05-15T07:49:45.821Z,59.20
2018-05-15T07:52:13.293Z,58.80
2018-05-15T07:54:40.775Z,58.40
2018-05-15T07:57:08.987Z,57.10
2018-05-15T07:59:36.493Z,57.00
2018-05-15T08:02:04.073Z,58.90
2018-05-15T08:04:31.524Z,59.30
2018-05-15T08:06:58.929Z,58.80
2018-05-15T08:09:26.392Z,58.30
2018-05-15T08:11:53.870Z,58.70
2018-05-15T08:14:21.386Z,57.50
2018-05-15T08:16:48.896Z,55.10
2018-05-15T08:19:16.357Z,54.60
2018-05-15T08:21:43.810Z,54.40
2018-05-15T08:24:11.300Z,55.50
2018-05-15T08:26:38.809Z,54.90
2018-05-15T08:29:06.289Z,55.50
2018-05-15T08:31:33.744Z,54.70
2018-05-15T08:34:01.208Z,54.90
2018-05-15T08:36:29.449Z,55.10
2018-05-15T08:38:56.940Z,55.10
2018-05-15T08:41:25.182Z,53.60
2018-05-15T08:43:52.673Z,53.60
2018-05-15T08:46:20.933Z,51.70
2018-05-15T08:48:48.408Z,51.60
2018-05-15T08:51:16.639Z,52.50
2018-05-15T08:53:44.170Z,52.50
2018-05-15T08:56:11.641Z,52.10
2018-05-15T08:58:39.272Z,50.80
2018-05-15T09:01:06.784Z,48.10
2018-05-15T09:03:34.253Z,48.60
2018-05-15T09:06:01.705Z,44.90
2018-05-15T09:08:29.234Z,44.20
2018-05-15T09:10:56.724Z,41.70
2018-05-15T09:13:24.180Z,42.40
2018-05-15T09:15:51.785Z,42.40
2018-05-15T09:18:19.294Z,40.80
2018-05-15T09:20:46.796Z,38.70
2018-05-15T09:23:14.272Z,38.70
2018-05-15T09:25:41.801Z,38.60
2018-05-15T09:28:10.131Z,41.40
2018-05-15T09:30:38.537Z,41.30
2018-05-15T09:33:07.146Z,42.50
2018-05-15T09:35:34.639Z,43.50
2018-05-15T09:38:02.192Z,45.10
2018-05-15T09:40:29.687Z,46.70
2018-05-15T09:42:57.163Z,48.00
2018-05-15T09:45:24.640Z,48.40
2018-05-15T09:47:53.024Z,49.00
2018-05-15T09:50:20.653Z,49.00
2018-05-15T09:52:48.553Z,49.30
2018-05-15T09:55:16.047Z,50.40
2018-05-15T09:57:43.488Z,51.00
2018-05-15T10:00:10.985Z,50.80
2018-05-15T10:02:38.581Z,51.50
2018-05-15T10:05:06.976Z,50.60
2018-05-15T10:07:34.565Z,50.60
2018-05-15T10:10:02.169Z,47.50
2018-05-15T10:12:30.395Z,43.20
2018-05-15T10:14:57.864Z,43.20
2018-05-15T10:17:25.317Z,40.50
2018-05-15T10:19:52.855Z,37.80
2018-05-15T10:22:20.238Z,32.60
2018-05-15T10:24:47.748Z,32.60
2018-05-15T10:27:15.992Z,38.10
2018-05-15T10:29:43.637Z,38.10
2018-05-15T10:32:11.921Z,46.50
2018-05-15T10:34:39.359Z,46.60
2018-05-15T10:37:06.814Z,57.00
2018-05-15T10:39:34.320Z,60.20
2018-05-15T10:42:02.564Z,68.80
2018-05-15T10:44:30.022Z,68.80
2018-05-15T10:46:57.509Z,72.20
2018-05-15T10:49:25.736Z,79.20
2018-05-15T10:51:53.716Z,79.20
2018-05-15T10:54:21.177Z,79.60
2018-05-15T10:56:48.639Z,81.90
2018-05-15T10:59:16.100Z,82.10
2018-05-15T11:01:45.400Z,83.30
2018-05-15T11:04:12.931Z,84.90
2018-05-15T11:06:40.396Z,85.60
2018-05-15T11:09:07.855Z,85.60
2018-05-15T11:11:35.700Z,86.70
2018-05-15T11:14:03.847Z,87.10
2018-05-15T11:16:31.351Z,87.50
2018-05-15T11:19:10.661Z,88.80
2018-05-15T11:24:50.038Z,88.70
2018-05-15T11:27:17.502Z,90.70
2018-05-15T11:29:44.977Z,89.30
2018-05-15T11:32:12.449Z,90.10
2018-05-15T11:34:40.672Z,86.70
2018-05-15T11:37:08.148Z,86.60
2018-05-15T11:39:35.617Z,88.00
2018-05-15T11:42:03.081Z,88.30
2018-05-15T11:44:30.554Z,85.70
2018-05-15T11:46:58.834Z,83.20
2018-05-15T11:49:27.607Z,85.60
2018-05-15T11:51:55.787Z,85.60
2018-05-15T11:54:22.178Z,85.20
2018-05-15T11:56:49.868Z,79.70
2018-05-15T11:59:17.437Z,79.10
2018-05-15T12:01:44.993Z,78.80
2018-05-15T12:04:12.487Z,80.40
2018-05-15T12:06:40.071Z,81.10
2018-05-15T12:09:07.446Z,82.90
2018-05-15T12:11:34.906Z,81.00
2018-05-15T12:14:02.887Z,80.60
2018-05-15T12:16:30.349Z,77.10
2018-05-15T12:18:57.813Z,71.50
2018-05-15T12:21:25.273Z,68.40
2018-05-15T12:23:53.558Z,68.60
2018-05-15T12:26:21.794Z,62.60
2018-05-15T12:28:49.240Z,62.50
2018-05-15T12:31:16.719Z,59.80
2018-05-15T12:33:44.166Z,55.50
2018-05-15T12:36:11.629Z,53.50
2018-05-15T12:38:39.073Z,53.70
2018-05-15T12:41:06.688Z,54.80
2018-05-15T12:43:34.338Z,55.00
2018-05-15T12:46:02.571Z,57.70
